Latest Coastal Weather Observations for Tasman Island

IDT60701

Issued at 9:55 am EST Sunday 21 September 2014 (issued every 10 minutes, with the page automatically refreshed every 10 minutes)

About coastal observations | Map of coastal stations | Coastal observations for TAS | Marine services | Other Formats
Station Details ID: 094155 Name: TASMAN ISLAND Lat: -43.24 Lon: 148.00 Height: 240.0 m
Data from the previous 72 hours. | See also: Recent months at Tasman Island
Date/Time
EST
Temp

°C
Wind Pressure Rain
since 9am
mm
Weather Cloud Vis
km
Sea
Height
m
Swell
Dir
 
Speed
knots
Gust
knots
hPa Trend Height
m
Period
s
Dir
21/09:30am 11.0 W 8 18 1025.7 - 0.0 - - - - - - -
21/09:00am 10.6 WSW 11 23 1025.5 - 0.0 - - - - - - -
21/08:30am 9.9 WSW 12 23 1025.3 - 0.0 - - - - - - -
21/08:00am 9.8 WSW 9 27 1025.0 - 0.0 - - - - - - -
21/07:30am 9.8 SW 13 29 1024.6 - 0.0 - - - - - - -
21/07:00am 9.8 WSW 12 28 1024.2 - 0.0 - - - - - - -
21/06:30am 9.7 SW 13 33 1023.9 - 0.0 - - - - - - -
21/06:12am 10.1 WSW 15 30 1023.8 - 0.0 - - - - - - -
21/06:00am 9.9 SW 14 28 1023.6 - 0.0 - - - - - - -
21/05:30am 10.0 W 7 22 1023.6 - 0.0 - - - - - - -
21/05:00am 10.1 WNW 6 17 1023.5 - 0.0 - - - - - - -
21/04:30am 9.9 NW 7 19 1023.4 - 0.0 - - - - - - -
21/04:00am 9.7 WNW 7 17 1023.2 - 0.0 - - - - - - -
21/03:30am 9.6 W 6 17 1023.4 - 0.0 - - - - - - -
21/03:00am 9.5 W 6 19 1023.4 - 0.0 - - - - - - -
21/02:30am 9.6 NW 6 15 1023.4 - 0.0 - - - - - - -
21/02:00am 9.6 W 6 19 1023.9 - 0.0 - - - - - - -
21/01:30am 9.6 NW 6 21 1024.0 - 0.0 - - - - - - -
21/01:00am 9.4 WSW 5 17 1024.1 - 0.0 - - - - - - -
21/12:30am 9.3 W 5 15 1024.0 - 0.0 - - - - - - -
21/12:00am 9.0 WSW 4 15 1024.1 - 0.0 - - - - - - -
 
Date/Time
EST
Temp

°C
Wind Pressure Rain
since 9am
mm
Weather Cloud Vis
km
Sea
Height
m
Swell
Dir
 
Speed
knots
Gust
knots
hPa Trend Height
m
Period
s
Dir
20/11:30pm 9.3 N 5 16 1024.0 - 0.0 - - - - - - -
20/11:00pm 9.5 NW 6 19 1024.2 - 0.0 - - - - - - -
20/10:30pm 9.5 WNW 6 22 1024.4 - 0.0 - - - - - - -
20/10:00pm 9.7 NW 5 21 1024.2 - 0.0 - - - - - - -
20/09:30pm 9.8 S 5 16 1024.7 - 0.0 - - - - - - -
20/09:00pm 9.7 WSW 6 17 1024.6 - 0.0 - - - - - - -
20/08:30pm 9.7 WSW 6 18 1024.4 - 0.0 - - - - - - -
20/08:00pm 9.6 W 6 17 1024.4 - 0.0 - - - - - - -
20/07:30pm 9.7 WSW 13 22 1024.3 - 0.0 - - - - - - -
20/07:00pm 9.5 SW 11 21 1024.0 - 0.0 - - - - - - -
20/06:30pm 9.9 WSW 13 25 1023.4 - 0.0 - - - - - - -
20/06:00pm 9.9 WSW 13 23 1023.3 - 0.0 - - - - - - -
20/05:30pm 10.2 WSW 10 23 1022.9 - 0.0 - - - - - - -
20/05:00pm 10.4 WSW 10 22 1022.7 - 0.0 - - - - - - -
20/04:30pm 10.4 SW 16 30 1022.5 - 0.0 - - - - - - -
20/04:24pm 10.4 SW 15 30 1022.5 - 0.0 - - - - - - -
20/04:00pm 10.6 SW 14 30 1022.3 - 0.0 - - - - - - -
20/03:30pm 10.0 SW 15 30 1022.2 - 0.0 - - - - - - -
20/03:25pm 10.5 SW 15 26 1022.3 - 0.0 - - - - - - -
20/03:00pm 10.5 SW 12 26 1022.1 - 0.0 - - - - - - -
20/02:34pm 10.7 SW 15 34 1022.0 - 0.0 - - - - - - -
20/02:30pm 11.0 SW 14 34 1022.0 - 0.0 - - - - - - -
20/02:00pm 9.9 SW 18 36 1022.0 - 0.0 - - - - - - -
20/01:40pm 10.5 SW 15 32 1021.8 - 0.0 - - - - - - -
20/01:30pm 10.7 SW 11 28 1022.0 - 0.0 - - - - - - -
20/01:00pm 10.7 SW 9 28 1022.3 - 0.0 - - - - - - -
20/12:30pm 10.5 WSW 11 25 1022.4 - 0.0 - - - - - - -
20/12:00pm 10.9 WSW 12 27 1022.3 - 0.0 - - - - - - -
20/11:30am 10.4 W 10 22 1022.5 - 0.0 - - - - - - -
20/11:00am 10.5 WSW 11 26 1022.4 - 0.0 - - - - - - -
20/10:30am 9.7 WSW 10 27 1022.2 - 0.0 - - - - - - -
20/10:02am 9.4 WSW 15 30 1022.1 - 0.0 - - - - - - -
20/10:00am 9.5 WSW 14 30 1022.2 - 0.0 - - - - - - -
20/09:38am 9.1 WSW 15 27 1022.1 - 0.0 - - - - - - -
20/09:30am 9.3 WSW 12 25 1022.0 - 0.0 - - - - - - -
20/09:00am 9.4 WSW 14 29 1021.9 - 6.2 - - - - - - -
20/08:35am 9.1 WSW 15 31 1021.9 - 6.2 - - - - - - -
20/08:30am 9.1 WSW 13 24 1021.8 - 6.2 - - - - - - -
20/08:00am 9.1 WSW 13 25 1021.8 - 6.2 - - - - - - -
20/07:30am 8.7 SW 14 31 1021.4 - 6.2 - - - - - - -
20/07:10am 8.8 SW 15 30 1021.1 - 6.2 - - - - - - -
20/07:00am 8.9 WSW 14 31 1021.2 - 6.2 - - - - - - -
20/06:30am 8.8 SW 13 27 1020.7 - 6.2 - - - - - - -
20/06:00am 8.2 SW 15 34 1020.3 - 6.2 - - - - - - -
20/05:30am 8.7 SW 17 33 1019.9 - 6.2 - - - - - - -
20/05:00am 8.7 SW 15 28 1019.7 - 6.2 - - - - - - -
20/04:30am 8.9 SW 17 37 1019.3 - 6.2 - - - - - - -
20/04:00am 8.9 SW 18 34 1019.0 - 6.2 - - - - - - -
20/03:30am 8.8 SW 20 37 1018.8 - 6.2 - - - - - - -
20/03:00am 8.9 SW 15 35 1018.4 - 6.0 - - - - - - -
20/02:30am 9.2 SW 15 35 1018.1 - 6.0 - - - - - - -
20/02:08am 9.2 SW 15 30 1018.1 - 6.0 - - - - - - -
20/02:00am 9.1 SW 14 29 1018.0 - 6.0 - - - - - - -
20/01:32am 8.7 SW 15 33 1017.8 - 6.0 - - - - - - -
20/01:30am 8.9 SW 14 36 1017.9 - 6.0 - - - - - - -
20/01:00am 9.0 SW 15 32 1017.7 - 6.0 - - - - - - -
20/12:30am 8.9 SW 15 35 1017.8 - 6.0 - - - - - - -
20/12:00am 8.9 SW 26 38 1017.8 - 5.2 Rain - - - - - -
 
Date/Time
EST
Temp

°C
Wind Pressure Rain
since 9am
mm
Weather Cloud Vis
km
Sea
Height
m
Swell
Dir
 
Speed
knots
Gust
knots
hPa Trend Height
m
Period
s
Dir
19/11:30pm 9.1 SW 17 29 1017.8 - 4.8 - - - - - - -
19/11:00pm 9.1 SW 17 37 1017.7 - 4.8 - - - - - - -
19/10:30pm 9.5 SSW 23 37 1017.6 - 4.8 - - - - - - -
19/10:00pm 8.8 SSW 25 44 1017.4 - 4.8 - - - - - - -
19/09:30pm 8.9 SSW 20 40 1017.2 - 4.8 - - - - - - -
19/09:23pm 8.8 SSW 19 32 1017.0 - 4.8 - - - - - - -
19/09:15pm 8.7 SW 31 43 1016.7 - 4.6 - - - - - - -
19/09:00pm 9.0 SW 19 38 1016.7 - 4.2 Recent precip. - - - - - -
19/08:30pm 9.1 SW 17 37 1016.6 - 4.0 - - - - - - -
19/08:00pm 9.1 SW 15 34 1016.5 - 3.6 - - - - - - -
19/07:30pm 8.8 SW 15 30 1016.3 - 3.4 - - - - - - -
19/07:00pm 8.6 SW 18 37 1015.8 - 3.4 - - - - - - -
19/06:30pm 9.1 WSW 17 38 1014.9 - 2.2 - - - - - - -
19/06:00pm 8.9 WSW 16 33 1014.9 - 2.2 - - - - - - -
19/05:30pm 8.7 WSW 15 36 1014.8 - 2.2 - - - - - - -
19/05:00pm 9.1 WSW 16 36 1014.6 - 2.2 - - - - - - -
19/04:30pm 9.4 WSW 18 40 1014.3 - 2.2 - - - - - - -
19/04:00pm 9.1 WSW 20 42 1013.5 - 2.2 - - - - - - -
19/03:30pm 10.0 WSW 20 41 1013.6 - 2.2 - - - - - - -
19/03:00pm 9.9 WSW 16 36 1013.4 - 2.2 - - - - - - -
19/02:30pm 9.9 WSW 18 36 1013.0 - 2.2 - - - - - - -
19/02:00pm 10.0 WSW 21 44 1013.1 - 2.2 - - - - - - -
19/01:30pm 9.5 WSW 19 44 1013.0 - 2.2 - - - - - - -
19/01:00pm 9.4 WSW 16 39 1013.3 - 2.2 - - - - - - -
19/12:33pm 9.7 WSW 15 37 1013.5 - 2.2 - - - - - - -
19/12:30pm 9.9 WSW 13 32 1013.5 - 2.2 - - - - - - -
19/12:00pm 9.3 WSW 21 43 1013.3 - 2.2 - - - - - - -
19/11:30am 8.8 WSW 16 37 1013.5 - 2.2 - - - - - - -
19/11:00am 8.7 SW 18 36 1013.6 - 2.2 - - - - - - -
19/10:30am 8.3 WSW 18 38 1013.5 - 2.0 - - - - - - -
19/10:00am 8.5 SW 18 36 1013.7 - 1.6 - - - - - - -
19/09:30am 8.7 SW 21 45 1013.8 - 1.0 - - - - - - -
19/09:21am 8.3 SW 18 45 1013.6 - 1.0 - - - - - - -
19/09:15am 8.5 SW 15 30 1013.6 - 1.0 - - - - - - -
19/09:04am 8.1 SW 30 47 1013.6 - 0.6 - - - - - - -
19/09:00am 8.5 SW 15 39 1013.7 - 16.8 Rain - - - - - -
19/08:30am 8.8 SSW 25 41 1013.6 - 15.4 - - - - - - -
19/08:00am 8.4 SSW 22 37 1013.5 - 15.4 - - - - - - -
19/07:55am 8.4 SSW 18 34 1013.5 - 15.4 - - - - - - -
19/07:30am 8.4 SW 30 46 1013.2 - 15.2 - - - - - - -
19/07:00am 8.2 SW 32 49 1012.8 - 14.8 - - - - - - -
19/06:49am 8.3 SW 32 48 1012.5 - 14.4 - - - - - - -
19/06:30am 8.0 SW 19 39 1012.4 - 14.4 - - - - - - -
19/06:18am 7.9 SW 19 32 1012.4 - 14.0 - - - - - - -
19/06:04am 8.1 SW 32 44 1012.1 - 13.6 - - - - - - -
19/06:00am 8.1 SW 18 41 1011.9 - 13.6 Recent precip. - - - - - -
19/05:30am 8.0 SW 21 42 1011.5 - 13.6 - - - - - - -
19/05:00am 8.1 SW 27 49 1011.3 - 12.8 - - - - - - -
19/04:30am 8.4 SW 29 49 1010.9 - 10.6 - - - - - - -
19/04:00am 8.5 SW 23 48 1011.0 - 9.4 - - - - - - -
19/03:39am 8.4 SW 28 48 1010.8 - 8.8 - - - - - - -
19/03:30am 8.0 SW 24 37 1010.7 - 8.6 - - - - - - -
19/03:29am 8.0 SW 23 34 1010.7 - 8.6 - - - - - - -
19/03:20am 7.8 SW 35 47 1010.5 - 8.6 - - - - - - -
19/03:00am 8.4 SW 22 44 1010.3 - 8.2 Recent precip. - - - - - -
19/02:30am 8.0 WSW 22 49 1010.0 - 7.6 - - - - - - -
19/02:13am 8.3 WSW 19 43 1010.2 - 6.2 - - - - - - -
19/02:06am 8.5 WSW 16 32 1010.3 - 6.0 - - - - - - -
19/02:04am 8.5 WNW 7 20 1010.3 - 6.0 - - - - - - -
19/02:00am 8.6 W 21 40 1010.3 - 5.6 - - - - - - -
19/01:46am 8.3 WSW 18 47 1010.1 - 5.4 - - - - - - -
19/01:39am 8.5 WSW 15 36 1010.6 - 5.2 - - - - - - -
19/01:30am 8.2 WSW 13 34 1011.1 - 5.2 - - - - - - -
19/01:00am 8.8 W 15 39 1010.8 - 5.2 - - - - - - -
19/12:55am 8.6 WSW 15 39 1010.8 - 5.2 - - - - - - -
19/12:30am 7.7 NW 7 21 1011.4 - 5.2 - - - - - - -
19/12:00am 7.6 N 10 25 1011.5 - 5.2 Rain - - - - - -
 
Date/Time
EST
Temp

°C
Wind Pressure Rain
since 9am
mm
Weather Cloud Vis
km
Sea
Height
m
Swell
Dir
 
Speed
knots
Gust
knots
hPa Trend Height
m
Period
s
Dir
18/11:30pm 7.9 N 5 17 1012.0 - 4.4 - - - - - - -
18/11:00pm 8.3 W 8 26 1012.3 - 4.4 - - - - - - -
18/10:30pm 8.3 NNW 7 22 1012.4 - 4.4 - - - - - - -
18/10:00pm 8.2 NW 6 19 1013.2 - 4.4 - - - - - - -
18/09:30pm 8.0 WSW 8 23 1013.2 - 4.4 - - - - - - -
18/09:00pm 8.5 SSW 8 20 1013.4 - 4.4 - - - - - - -
18/08:35pm 8.6 WSW 15 31 1013.6 - 4.4 - - - - - - -
18/08:30pm 8.5 SW 14 28 1013.6 - 4.4 - - - - - - -
18/08:00pm 8.2 WSW 15 33 1013.8 - 4.4 - - - - - - -
18/07:54pm 8.2 WSW 15 34 1013.6 - 4.4 - - - - - - -
18/07:30pm 8.4 WSW 10 27 1013.8 - 4.4 - - - - - - -
18/07:29pm 8.5 W 8 27 1013.8 - 4.4 - - - - - - -
18/07:00pm 8.4 SW 25 43 1013.4 - 4.4 - - - - - - -
18/06:36pm 8.3 SSW 24 47 1013.2 - 4.4 - - - - - - -
18/06:30pm 8.3 SW 20 31 1013.4 - 4.4 - - - - - - -
18/06:00pm 8.0 SW 33 44 1013.1 - 4.4 - - - - - - -
18/05:30pm 8.1 SW 28 47 1012.8 - 4.4 - - - - - - -
18/05:00pm 8.3 SSW 27 49 1012.2 - 4.4 - - - - - - -
18/04:30pm 8.3 SW 30 44 1011.9 - 4.4 - - - - - - -
18/04:21pm 8.4 SW 32 44 1011.9 - 4.4 - - - - - - -
18/04:00pm 8.1 SW 19 43 1011.5 - 4.4 - - - - - - -
18/03:30pm 7.9 SW 18 36 1011.7 - 4.4 - - - - - - -
18/03:24pm 7.8 SW 15 36 1011.7 - 4.4 - - - - - - -
18/03:00pm 7.3 SSW 10 22 1011.5 - 4.4 - - - - - - -
18/02:30pm 6.4 NW 6 18 1012.1 - 4.4 - - - - - - -
18/02:00pm 5.4 NW 7 20 1012.2 - 4.4 - - - - - - -
18/01:32pm 5.3 WSW 15 32 1012.3 - 4.0 - - - - - - -
18/01:30pm 5.2 WSW 14 32 1012.3 - 3.8 - - - - - - -
18/01:14pm 4.8 WSW 22 38 1012.4 - 3.0 - - - - - - -
18/01:00pm 5.8 SSW 20 45 1012.4 - 1.2 - - - - - - -
18/12:59pm 5.9 SSW 20 39 1012.4 - 1.2 - - - - - - -
18/12:55pm 6.5 SSW 16 26 1012.7 - 1.0 - - - - - - -
18/12:30pm 8.0 WSW 12 23 1012.3 - 0.8 - - - - - - -
18/12:00pm 8.3 WSW 10 25 1013.0 - 0.8 - - - - - - -
18/11:39am 7.6 WSW 13 27 1013.1 - 0.8 - - - - - - -
18/11:30am 7.4 SSW 22 40 1013.1 - 0.8 - - - - - - -
18/11:24am 7.6 SW 17 40 1013.2 - 0.8 - - - - - - -
18/11:05am 7.9 WSW 15 27 1013.4 - 0.8 - - - - - - -
18/11:00am 7.8 WSW 14 24 1013.6 - 0.8 - - - - - - -
18/10:43am 7.2 SW 15 34 1013.5 - 0.8 - - - - - - -
18/10:30am 7.2 SW 12 26 1013.9 - 0.8 - - - - - - -
18/10:00am 6.9 SW 12 33 1013.3 - 0.2 - - - - - - -

Other Formats:

Comma delimited format used in spreadsheet applications
http://www.bom.gov.au/fwo/IDT60701/IDT60701.95986.axf

JavaScript Object Notation format (JSON) in row-major order
http://www.bom.gov.au/fwo/IDT60701/IDT60701.95986.json